sensor_id;sensor_type;location;lat;lon;timestamp;pressure;altitude;pressure_sealevel;temperature;humidity
39301;BME280;25019;42.626;23.380;2023-02-04T00:00:05;94237.56;;;-0.02;100.00
39301;BME280;25019;42.626;23.380;2023-02-04T00:02:32;94234.44;;;-0.12;100.00
39301;BME280;25019;42.626;23.380;2023-02-04T00:04:58;94215.25;;;-0.41;100.00
39301;BME280;25019;42.626;23.380;2023-02-04T00:07:25;94237.03;;;-0.34;100.00
39301;BME280;25019;42.626;23.380;2023-02-04T00:09:50;94212.41;;;-0.46;100.00
39301;BME280;25019;42.626;23.380;2023-02-04T00:12:16;94212.25;;;-0.59;100.00
39301;BME280;25019;42.626;23.380;2023-02-04T00:14:42;94228.94;;;-0.39;100.00
39301;BME280;25019;42.626;23.380;2023-02-04T00:17:08;94215.31;;;-0.56;100.00
39301;BME280;25019;42.626;23.380;2023-02-04T00:19:35;94221.97;;;-0.53;100.00
39301;BME280;25019;42.626;23.380;2023-02-04T00:22:02;94204.81;;;-0.41;100.00
39301;BME280;25019;42.626;23.380;2023-02-04T00:24:28;94129.00;;;-0.98;100.00
39301;BME280;25019;42.626;23.380;2023-02-04T00:26:55;94170.34;;;-0.58;100.00
39301;BME280;25019;42.626;23.380;2023-02-04T00:29:21;94223.59;;;-0.31;100.00
39301;BME280;25019;42.626;23.380;2023-02-04T00:31:46;94210.44;;;-0.44;100.00
39301;BME280;25019;42.626;23.380;2023-02-04T00:34:12;94160.38;;;-1.06;100.00
39301;BME280;25019;42.626;23.380;2023-02-04T00:36:37;94202.13;;;-0.69;100.00
39301;BME280;25019;42.626;23.380;2023-02-04T00:39:03;94129.47;;;-1.09;100.00
39301;BME280;25019;42.626;23.380;2023-02-04T00:41:29;94212.91;;;-0.72;100.00
39301;BME280;25019;42.626;23.380;2023-02-04T00:43:54;94213.84;;;-0.80;100.00
39301;BME280;25019;42.626;23.380;2023-02-04T00:46:20;94210.31;;;-0.87;100.00
39301;BME280;25019;42.626;23.380;2023-02-04T00:48:46;94203.50;;;-0.88;100.00
39301;BME280;25019;42.626;23.380;2023-02-04T00:51:11;94194.06;;;-0.89;100.00
39301;BME280;25019;42.626;23.380;2023-02-04T00:53:37;94142.16;;;-1.21;100.00
39301;BME280;25019;42.626;23.380;2023-02-04T00:56:03;94175.53;;;-0.95;100.00
39301;BME280;25019;42.626;23.380;2023-02-04T00:58:28;94210.63;;;-0.61;100.00
39301;BME280;25019;42.626;23.380;2023-02-04T01:00:54;94165.53;;;-0.76;100.00
39301;BME280;25019;42.626;23.380;2023-02-04T01:03:20;94122.06;;;-1.06;100.00
39301;BME280;25019;42.626;23.380;2023-02-04T01:05:45;94174.31;;;-0.62;100.00
39301;BME280;25019;42.626;23.380;2023-02-04T01:08:11;94170.16;;;-0.56;100.00
39301;BME280;25019;42.626;23.380;2023-02-04T01:10:37;94075.34;;;-1.07;100.00
39301;BME280;25019;42.626;23.380;2023-02-04T01:13:03;94177.25;;;-0.28;100.00
39301;BME280;25019;42.626;23.380;2023-02-04T01:15:28;94158.63;;;-0.25;100.00
39301;BME280;25019;42.626;23.380;2023-02-04T01:17:54;94151.59;;;-0.25;100.00
39301;BME280;25019;42.626;23.380;2023-02-04T01:20:20;94121.41;;;-0.34;100.00
39301;BME280;25019;42.626;23.380;2023-02-04T01:22:47;94083.81;;;-0.62;100.00
39301;BME280;25019;42.626;23.380;2023-02-04T01:25:13;94074.81;;;-0.59;100.00
39301;BME280;25019;42.626;23.380;2023-02-04T01:27:39;94117.97;;;-0.35;100.00
39301;BME280;25019;42.626;23.380;2023-02-04T01:30:06;94135.25;;;-0.34;100.00
39301;BME280;25019;42.626;23.380;2023-02-04T01:32:32;94085.69;;;-0.55;100.00
39301;BME280;25019;42.626;23.380;2023-02-04T01:34:58;94103.47;;;-0.44;100.00
39301;BME280;25019;42.626;23.380;2023-02-04T01:37:24;94134.25;;;-0.33;100.00
39301;BME280;25019;42.626;23.380;2023-02-04T01:39:50;94126.00;;;-0.36;100.00
39301;BME280;25019;42.626;23.380;2023-02-04T01:42:16;94118.84;;;-0.27;100.00
39301;BME280;25019;42.626;23.380;2023-02-04T01:44:42;94041.41;;;-0.70;100.00
39301;BME280;25019;42.626;23.380;2023-02-04T01:47:08;94034.63;;;-0.86;100.00
39301;BME280;25019;42.626;23.380;2023-02-04T01:49:34;94101.81;;;-0.23;100.00
39301;BME280;25019;42.626;23.380;2023-02-04T01:52:01;94103.69;;;-0.17;100.00
39301;BME280;25019;42.626;23.380;2023-02-04T01:54:27;94101.69;;;-0.15;100.00
39301;BME280;25019;42.626;23.380;2023-02-04T01:56:53;94090.09;;;-0.06;100.00
39301;BME280;25019;42.626;23.380;2023-02-04T01:59:20;94080.66;;;-0.07;100.00
39301;BME280;25019;42.626;23.380;2023-02-04T02:01:49;94099.00;;;0.00;100.00
39301;BME280;25019;42.626;23.380;2023-02-04T02:04:18;94099.66;;;0.09;100.00
39301;BME280;25019;42.626;23.380;2023-02-04T02:06:48;94014.34;;;-0.41;100.00
39301;BME280;25019;42.626;23.380;2023-02-04T02:09:16;94081.22;;;-0.11;100.00
39301;BME280;25019;42.626;23.380;2023-02-04T02:11:42;94051.84;;;-0.20;100.00
39301;BME280;25019;42.626;23.380;2023-02-04T02:14:08;94048.41;;;-0.21;100.00
39301;BME280;25019;42.626;23.380;2023-02-04T02:16:33;94093.19;;;0.05;100.00
39301;BME280;25019;42.626;23.380;2023-02-04T02:18:59;93995.03;;;-0.47;100.00
39301;BME280;25019;42.626;23.380;2023-02-04T02:21:41;94078.13;;;0.07;100.00
39301;BME280;25019;42.626;23.380;2023-02-04T02:24:30;94072.94;;;0.13;100.00
39301;BME280;25019;42.626;23.380;2023-02-04T02:26:59;94055.63;;;-0.23;100.00
39301;BME280;25019;42.626;23.380;2023-02-04T02:29:26;94055.47;;;-0.21;100.00
39301;BME280;25019;42.626;23.380;2023-02-04T02:31:53;94032.84;;;-0.36;100.00
39301;BME280;25019;42.626;23.380;2023-02-04T02:34:25;94021.50;;;-0.50;100.00
39301;BME280;25019;42.626;23.380;2023-02-04T02:36:51;94029.97;;;-0.19;100.00
39301;BME280;25019;42.626;23.380;2023-02-04T02:39:17;93983.22;;;-0.42;100.00
39301;BME280;25019;42.626;23.380;2023-02-04T02:41:44;93965.16;;;-0.44;100.00
39301;BME280;25019;42.626;23.380;2023-02-04T02:44:11;94000.19;;;-0.25;100.00
39301;BME280;25019;42.626;23.380;2023-02-04T02:46:38;93993.19;;;-0.24;100.00
39301;BME280;25019;42.626;23.380;2023-02-04T02:49:04;93975.31;;;-0.27;100.00
39301;BME280;25019;42.626;23.380;2023-02-04T02:51:30;93932.16;;;-0.58;100.00
39301;BME280;25019;42.626;23.380;2023-02-04T02:53:56;93974.66;;;-0.36;100.00
39301;BME280;25019;42.626;23.380;2023-02-04T02:56:23;93904.59;;;-0.96;100.00
39301;BME280;25019;42.626;23.380;2023-02-04T02:58:50;93974.91;;;-0.53;100.00
39301;BME280;25019;42.626;23.380;2023-02-04T03:01:17;93961.69;;;-0.51;100.00
39301;BME280;25019;42.626;23.380;2023-02-04T03:03:48;93965.09;;;-0.51;100.00
39301;BME280;25019;42.626;23.380;2023-02-04T03:06:22;93989.84;;;-0.40;100.00
39301;BME280;25019;42.626;23.380;2023-02-04T03:08:50;93993.03;;;-0.44;100.00
39301;BME280;25019;42.626;23.380;2023-02-04T03:11:19;93928.75;;;-1.09;100.00
39301;BME280;25019;42.626;23.380;2023-02-04T03:13:47;93965.69;;;-0.84;100.00
39301;BME280;25019;42.626;23.380;2023-02-04T03:16:13;93963.66;;;-0.82;100.00
39301;BME280;25019;42.626;23.380;2023-02-04T03:18:38;93993.75;;;-0.57;100.00
39301;BME280;25019;42.626;23.380;2023-02-04T03:21:05;94007.66;;;-0.50;100.00
39301;BME280;25019;42.626;23.380;2023-02-04T03:23:35;94003.00;;;-0.55;100.00
39301;BME280;25019;42.626;23.380;2023-02-04T03:26:03;93957.25;;;-0.86;100.00
39301;BME280;25019;42.626;23.380;2023-02-04T03:28:29;94003.09;;;-0.41;100.00
39301;BME280;25019;42.626;23.380;2023-02-04T03:30:55;94000.53;;;-0.35;100.00
39301;BME280;25019;42.626;23.380;2023-02-04T03:33:27;93983.66;;;-0.39;100.00
39301;BME280;25019;42.626;23.380;2023-02-04T03:35:58;93913.81;;;-0.72;100.00
39301;BME280;25019;42.626;23.380;2023-02-04T03:38:25;93984.25;;;-0.08;100.00
39301;BME280;25019;42.626;23.380;2023-02-04T03:40:50;93990.03;;;-0.13;100.00
39301;BME280;25019;42.626;23.380;2023-02-04T03:43:16;93884.94;;;-0.70;100.00
39301;BME280;25019;42.626;23.380;2023-02-04T03:45:41;93981.09;;;0.03;100.00
39301;BME280;25019;42.626;23.380;2023-02-04T03:48:07;93879.81;;;-0.57;100.00
39301;BME280;25019;42.626;23.380;2023-02-04T03:50:33;93948.69;;;-0.16;100.00
39301;BME280;25019;42.626;23.380;2023-02-04T03:52:59;93953.34;;;-0.05;100.00
39301;BME280;25019;42.626;23.380;2023-02-04T03:55:24;93945.97;;;0.06;100.00
39301;BME280;25019;42.626;23.380;2023-02-04T03:57:51;93939.72;;;0.00;100.00
39301;BME280;25019;42.626;23.380;2023-02-04T04:00:17;93889.56;;;-0.31;100.00
39301;BME280;25019;42.626;23.380;2023-02-04T04:02:43;93937.38;;;0.19;100.00
39301;BME280;25019;42.626;23.380;2023-02-04T04:05:09;93794.25;;;-0.68;100.00
39301;BME280;25019;42.626;23.380;2023-02-04T04:07:35;93818.56;;;-0.61;100.00
39301;BME280;25019;42.626;23.380;2023-02-04T04:10:01;93904.75;;;0.01;100.00
39301;BME280;25019;42.626;23.380;2023-02-04T04:12:26;93908.44;;;0.13;100.00
39301;BME280;25019;42.626;23.380;2023-02-04T04:14:52;93906.78;;;-0.01;100.00
39301;BME280;25019;42.626;23.380;2023-02-04T04:17:17;93877.38;;;-0.17;100.00
39301;BME280;25019;42.626;23.380;2023-02-04T04:19:43;93894.66;;;-0.09;100.00
39301;BME280;25019;42.626;23.380;2023-02-04T04:22:09;93881.81;;;-0.17;100.00
39301;BME280;25019;42.626;23.380;2023-02-04T04:24:35;93877.78;;;-0.13;100.00
39301;BME280;25019;42.626;23.380;2023-02-04T04:27:01;93896.06;;;-0.13;100.00
39301;BME280;25019;42.626;23.380;2023-02-04T04:29:26;93906.84;;;-0.23;100.00
39301;BME280;25019;42.626;23.380;2023-02-04T04:31:52;93914.50;;;-0.21;100.00
39301;BME280;25019;42.626;23.380;2023-02-04T04:34:18;93910.94;;;-0.07;100.00
39301;BME280;25019;42.626;23.380;2023-02-04T04:36:43;93908.84;;;-0.25;100.00
39301;BME280;25019;42.626;23.380;2023-02-04T04:39:09;93926.34;;;-0.19;100.00
39301;BME280;25019;42.626;23.380;2023-02-04T04:41:35;93928.34;;;-0.21;100.00
39301;BME280;25019;42.626;23.380;2023-02-04T04:44:01;93945.06;;;-0.15;100.00
39301;BME280;25019;42.626;23.380;2023-02-04T04:46:26;93913.06;;;-0.24;100.00
39301;BME280;25019;42.626;23.380;2023-02-04T04:48:52;93885.19;;;-0.58;100.00
39301;BME280;25019;42.626;23.380;2023-02-04T04:51:17;93958.31;;;-0.10;100.00
39301;BME280;25019;42.626;23.380;2023-02-04T04:53:43;93961.75;;;-0.09;100.00
39301;BME280;25019;42.626;23.380;2023-02-04T04:56:08;93954.72;;;-0.09;100.00
39301;BME280;25019;42.626;23.380;2023-02-04T04:58:34;93959.94;;;-0.09;100.00
39301;BME280;25019;42.626;23.380;2023-02-04T05:01:00;93922.31;;;-0.28;100.00
39301;BME280;25019;42.626;23.380;2023-02-04T05:03:25;93855.75;;;-0.52;100.00
39301;BME280;25019;42.626;23.380;2023-02-04T05:05:51;93949.50;;;-0.09;100.00
39301;BME280;25019;42.626;23.380;2023-02-04T05:08:17;93869.28;;;-0.70;100.00
39301;BME280;25019;42.626;23.380;2023-02-04T05:10:44;93905.34;;;-0.46;100.00
39301;BME280;25019;42.626;23.380;2023-02-04T05:13:09;93934.78;;;-0.23;100.00
39301;BME280;25019;42.626;23.380;2023-02-04T05:15:35;93948.63;;;-0.23;100.00
39301;BME280;25019;42.626;23.380;2023-02-04T05:18:01;93880.00;;;-0.87;100.00
39301;BME280;25019;42.626;23.380;2023-02-04T05:20:27;93945.47;;;-0.47;100.00
39301;BME280;25019;42.626;23.380;2023-02-04T05:22:53;93959.22;;;-0.59;100.00
39301;BME280;25019;42.626;23.380;2023-02-04T05:25:21;93974.47;;;-0.63;100.00
39301;BME280;25019;42.626;23.380;2023-02-04T05:27:47;93964.34;;;-0.73;100.00
39301;BME280;25019;42.626;23.380;2023-02-04T05:30:13;93950.78;;;-0.90;100.00
39301;BME280;25019;42.626;23.380;2023-02-04T05:32:40;93969.31;;;-0.78;100.00
39301;BME280;25019;42.626;23.380;2023-02-04T05:35:06;93975.34;;;-0.78;100.00
39301;BME280;25019;42.626;23.380;2023-02-04T05:37:31;93977.31;;;-0.80;100.00
39301;BME280;25019;42.626;23.380;2023-02-04T05:39:57;93997.28;;;-0.72;100.00
39301;BME280;25019;42.626;23.380;2023-02-04T05:42:23;93945.66;;;-1.05;100.00
39301;BME280;25019;42.626;23.380;2023-02-04T05:44:48;93931.44;;;-1.24;100.00
39301;BME280;25019;42.626;23.380;2023-02-04T05:47:14;93979.38;;;-0.97;100.00
39301;BME280;25019;42.626;23.380;2023-02-04T05:49:40;93977.09;;;-0.85;100.00
39301;BME280;25019;42.626;23.380;2023-02-04T05:52:06;94005.19;;;-0.58;100.00
39301;BME280;25019;42.626;23.380;2023-02-04T05:54:31;94006.00;;;-0.58;100.00
39301;BME280;25019;42.626;23.380;2023-02-04T05:56:57;94010.28;;;-0.50;100.00
39301;BME280;25019;42.626;23.380;2023-02-04T05:59:23;93919.91;;;-0.86;100.00
39301;BME280;25019;42.626;23.380;2023-02-04T06:01:48;93956.53;;;-0.44;100.00
39301;BME280;25019;42.626;23.380;2023-02-04T06:04:14;93966.16;;;-0.10;100.00
39301;BME280;25019;42.626;23.380;2023-02-04T06:06:41;93967.25;;;0.09;100.00
39301;BME280;25019;42.626;23.380;2023-02-04T06:09:07;93877.72;;;-0.33;100.00
39301;BME280;25019;42.626;23.380;2023-02-04T06:11:33;93973.06;;;0.47;100.00
39301;BME280;25019;42.626;23.380;2023-02-04T06:13:58;93928.00;;;0.38;100.00
39301;BME280;25019;42.626;23.380;2023-02-04T06:16:24;93968.91;;;0.86;100.00
39301;BME280;25019;42.626;23.380;2023-02-04T06:18:50;93968.16;;;1.06;100.00
39301;BME280;25019;42.626;23.380;2023-02-04T06:21:15;93950.44;;;1.21;100.00
39301;BME280;25019;42.626;23.380;2023-02-04T06:23:41;93957.69;;;1.39;100.00
39301;BME280;25019;42.626;23.380;2023-02-04T06:26:07;93967.53;;;1.64;100.00
39301;BME280;25019;42.626;23.380;2023-02-04T06:28:32;93949.81;;;1.73;100.00
39301;BME280;25019;42.626;23.380;2023-02-04T06:30:58;93949.22;;;1.64;100.00
39301;BME280;25019;42.626;23.380;2023-02-04T06:33:23;93962.47;;;1.83;100.00
39301;BME280;25019;42.626;23.380;2023-02-04T06:35:49;93975.78;;;1.88;100.00
39301;BME280;25019;42.626;23.380;2023-02-04T06:38:15;93969.13;;;1.92;100.00
39301;BME280;25019;42.626;23.380;2023-02-04T06:40:41;93819.69;;;1.08;100.00
39301;BME280;25019;42.626;23.380;2023-02-04T06:43:07;93955.00;;;2.06;100.00
39301;BME280;25019;42.626;23.380;2023-02-04T06:45:32;93966.66;;;2.17;100.00
39301;BME280;25019;42.626;23.380;2023-02-04T06:47:58;93969.06;;;2.12;100.00
39301;BME280;25019;42.626;23.380;2023-02-04T06:50:24;93879.56;;;1.56;100.00
39301;BME280;25019;42.626;23.380;2023-02-04T06:52:49;93972.31;;;2.07;100.00
39301;BME280;25019;42.626;23.380;2023-02-04T06:55:15;93962.84;;;2.06;100.00
39301;BME280;25019;42.626;23.380;2023-02-04T06:57:42;93966.44;;;2.12;100.00
39301;BME280;25019;42.626;23.380;2023-02-04T07:00:10;93974.09;;;2.14;100.00
39301;BME280;25019;42.626;23.380;2023-02-04T07:02:36;93963.81;;;2.19;100.00
39301;BME280;25019;42.626;23.380;2023-02-04T07:05:03;93825.66;;;1.35;100.00
39301;BME280;25019;42.626;23.380;2023-02-04T07:07:29;93961.34;;;2.31;99.93
39301;BME280;25019;42.626;23.380;2023-02-04T07:09:55;93954.66;;;2.42;100.00
39301;BME280;25019;42.626;23.380;2023-02-04T07:12:21;93945.81;;;2.36;100.00
39301;BME280;25019;42.626;23.380;2023-02-04T07:14:46;93960.72;;;2.42;100.00
39301;BME280;25019;42.626;23.380;2023-02-04T07:17:12;93962.72;;;2.40;100.00
39301;BME280;25019;42.626;23.380;2023-02-04T07:19:37;93957.50;;;2.40;100.00
39301;BME280;25019;42.626;23.380;2023-02-04T07:22:03;93946.81;;;2.35;100.00
39301;BME280;25019;42.626;23.380;2023-02-04T07:24:29;93902.59;;;2.06;100.00
39301;BME280;25019;42.626;23.380;2023-02-04T07:26:55;93949.91;;;2.64;100.00
39301;BME280;25019;42.626;23.380;2023-02-04T07:29:21;93957.97;;;2.69;99.67
39301;BME280;25019;42.626;23.380;2023-02-04T07:31:47;93866.25;;;2.17;98.45
39301;BME280;25019;42.626;23.380;2023-02-04T07:34:15;93835.94;;;1.95;98.17
39301;BME280;25019;42.626;23.380;2023-02-04T07:36:41;93895.91;;;2.56;97.20
39301;BME280;25019;42.626;23.380;2023-02-04T07:39:07;93927.41;;;2.88;96.79
39301;BME280;25019;42.626;23.380;2023-02-04T07:41:33;93934.19;;;3.21;96.20
39301;BME280;25019;42.626;23.380;2023-02-04T07:43:58;93930.22;;;3.44;92.87
39301;BME280;25019;42.626;23.380;2023-02-04T07:46:24;93906.09;;;3.28;90.99
39301;BME280;25019;42.626;23.380;2023-02-04T07:48:50;93936.41;;;3.50;90.12
39301;BME280;25019;42.626;23.380;2023-02-04T07:51:16;93939.03;;;3.50;89.82
39301;BME280;25019;42.626;23.380;2023-02-04T07:53:42;93948.78;;;3.42;90.16
39301;BME280;25019;42.626;23.380;2023-02-04T07:56:07;93944.16;;;3.63;90.17
39301;BME280;25019;42.626;23.380;2023-02-04T07:58:33;93901.09;;;3.45;89.35
39301;BME280;25019;42.626;23.380;2023-02-04T08:00:58;93924.13;;;3.69;89.67
39301;BME280;25019;42.626;23.380;2023-02-04T08:03:25;93909.94;;;3.51;87.26
39301;BME280;25019;42.626;23.380;2023-02-04T08:05:52;93945.66;;;3.78;86.42
39301;BME280;25019;42.626;23.380;2023-02-04T08:08:18;93933.72;;;3.82;85.76
39301;BME280;25019;42.626;23.380;2023-02-04T08:10:43;93869.25;;;3.42;85.75
39301;BME280;25019;42.626;23.380;2023-02-04T08:13:09;93855.31;;;3.41;84.06
39301;BME280;25019;42.626;23.380;2023-02-04T08:15:35;93902.59;;;3.60;84.45
39301;BME280;25019;42.626;23.380;2023-02-04T08:18:01;93936.75;;;3.79;84.87
39301;BME280;25019;42.626;23.380;2023-02-04T08:20:26;93932.25;;;3.86;84.24
39301;BME280;25019;42.626;23.380;2023-02-04T08:22:52;93830.13;;;3.15;83.80
39301;BME280;25019;42.626;23.380;2023-02-04T08:25:18;93932.38;;;3.91;84.16
39301;BME280;25019;42.626;23.380;2023-02-04T08:27:43;93936.06;;;3.90;84.73
39301;BME280;25019;42.626;23.380;2023-02-04T08:30:09;93929.97;;;3.89;85.05
39301;BME280;25019;42.626;23.380;2023-02-04T08:32:35;93930.41;;;3.86;85.00
39301;BME280;25019;42.626;23.380;2023-02-04T08:35:01;93927.22;;;4.03;84.65
39301;BME280;25019;42.626;23.380;2023-02-04T08:37:28;93930.38;;;4.12;82.80
39301;BME280;25019;42.626;23.380;2023-02-04T08:39:53;93939.03;;;4.12;82.73
39301;BME280;25019;42.626;23.380;2023-02-04T08:42:20;93926.72;;;4.13;81.82
39301;BME280;25019;42.626;23.380;2023-02-04T08:44:46;93932.50;;;4.03;82.70
39301;BME280;25019;42.626;23.380;2023-02-04T08:47:11;93919.13;;;3.86;82.31
39301;BME280;25019;42.626;23.380;2023-02-04T08:49:37;93920.94;;;3.85;83.08
39301;BME280;25019;42.626;23.380;2023-02-04T08:52:03;93926.66;;;4.01;81.82
39301;BME280;25019;42.626;23.380;2023-02-04T08:54:31;93926.66;;;4.01;82.79
39301;BME280;25019;42.626;23.380;2023-02-04T08:56:57;93928.38;;;4.07;82.89
39301;BME280;25019;42.626;23.380;2023-02-04T08:59:23;93923.88;;;3.96;82.96
39301;BME280;25019;42.626;23.380;2023-02-04T09:01:51;93935.59;;;3.93;83.43
39301;BME280;25019;42.626;23.380;2023-02-04T09:04:17;93939.72;;;4.08;82.57
39301;BME280;25019;42.626;23.380;2023-02-04T09:06:43;93830.56;;;3.30;81.52
39301;BME280;25019;42.626;23.380;2023-02-04T09:09:09;93925.63;;;4.02;81.55
39301;BME280;25019;42.626;23.380;2023-02-04T09:11:35;93816.44;;;3.32;81.52
39301;BME280;25019;42.626;23.380;2023-02-04T09:14:01;93932.84;;;4.07;81.31
39301;BME280;25019;42.626;23.380;2023-02-04T09:16:27;93880.94;;;4.02;79.20
39301;BME280;25019;42.626;23.380;2023-02-04T09:18:53;93917.13;;;4.37;78.68
39301;BME280;25019;42.626;23.380;2023-02-04T09:21:18;93925.28;;;4.47;80.05
39301;BME280;25019;42.626;23.380;2023-02-04T09:23:44;93897.44;;;4.28;78.12
39301;BME280;25019;42.626;23.380;2023-02-04T09:26:11;93921.09;;;4.28;77.78
39301;BME280;25019;42.626;23.380;2023-02-04T09:28:38;93909.22;;;4.37;77.58
39301;BME280;25019;42.626;23.380;2023-02-04T09:31:03;93911.31;;;4.47;76.03
39301;BME280;25019;42.626;23.380;2023-02-04T09:33:31;93916.81;;;4.45;76.01
39301;BME280;25019;42.626;23.380;2023-02-04T09:35:57;93904.75;;;4.56;74.44
39301;BME280;25019;42.626;23.380;2023-02-04T09:38:23;93849.88;;;4.29;75.08
39301;BME280;25019;42.626;23.380;2023-02-04T09:40:56;93902.56;;;4.53;76.42
39301;BME280;25019;42.626;23.380;2023-02-04T09:43:29;93904.84;;;4.49;77.11
39301;BME280;25019;42.626;23.380;2023-02-04T09:45:56;93909.75;;;4.46;80.50
39301;BME280;25019;42.626;23.380;2023-02-04T09:48:23;93894.06;;;4.20;82.91
39301;BME280;25019;42.626;23.380;2023-02-04T09:50:50;93881.53;;;4.04;85.98
39301;BME280;25019;42.626;23.380;2023-02-04T09:53:20;93896.91;;;4.00;86.82
39301;BME280;25019;42.626;23.380;2023-02-04T09:55:49;93904.09;;;4.12;87.96
39301;BME280;25019;42.626;23.380;2023-02-04T09:58:20;93903.34;;;4.04;89.00
39301;BME280;25019;42.626;23.380;2023-02-04T10:01:10;93894.56;;;3.92;91.18
39301;BME280;25019;42.626;23.380;2023-02-04T10:03:33;93823.16;;;3.46;91.37
39301;BME280;25019;42.626;23.380;2023-02-04T10:05:59;93811.50;;;3.42;92.05
39301;BME280;25019;42.626;23.380;2023-02-04T10:08:28;93881.25;;;3.94;89.87
39301;BME280;25019;42.626;23.380;2023-02-04T10:10:55;93874.66;;;3.84;87.88
39301;BME280;25019;42.626;23.380;2023-02-04T10:13:33;93860.56;;;3.97;87.37
39301;BME280;25019;42.626;23.380;2023-02-04T10:16:02;93791.44;;;3.48;85.83
39301;BME280;25019;42.626;23.380;2023-02-04T10:18:32;93794.94;;;3.60;86.50
39301;BME280;25019;42.626;23.380;2023-02-04T10:21:15;93841.88;;;4.05;84.60
39301;BME280;25019;42.626;23.380;2023-02-04T10:23:42;93842.69;;;4.06;84.32
39301;BME280;25019;42.626;23.380;2023-02-04T10:26:13;93856.97;;;4.29;82.73
39301;BME280;25019;42.626;23.380;2023-02-04T10:28:40;93836.88;;;4.34;82.23
39301;BME280;25019;42.626;23.380;2023-02-04T10:31:10;93765.44;;;3.77;83.24
39301;BME280;25019;42.626;23.380;2023-02-04T10:36:29;93837.91;;;4.33;82.62
39301;BME280;25019;42.626;23.380;2023-02-04T10:39:04;93849.63;;;4.49;82.22
39301;BME280;25019;42.626;23.380;2023-02-04T10:41:30;93823.09;;;4.20;82.98
39301;BME280;25019;42.626;23.380;2023-02-04T10:44:08;93850.25;;;4.14;86.78
39301;BME280;25019;42.626;23.380;2023-02-04T10:46:35;93852.53;;;4.11;90.39
39301;BME280;25019;42.626;23.380;2023-02-04T10:49:16;93829.38;;;4.19;92.08
39301;BME280;25019;42.626;23.380;2023-02-04T10:51:42;93853.50;;;3.98;94.94
39301;BME280;25019;42.626;23.380;2023-02-04T10:54:11;93700.44;;;3.04;95.42
39301;BME280;25019;42.626;23.380;2023-02-04T10:57:03;93830.72;;;3.92;96.39
39301;BME280;25019;42.626;23.380;2023-02-04T10:59:32;93836.56;;;3.94;95.34
39301;BME280;25019;42.626;23.380;2023-02-04T11:02:00;93833.81;;;3.88;96.59
39301;BME280;25019;42.626;23.380;2023-02-04T11:04:27;93830.84;;;4.15;96.54
39301;BME280;25019;42.626;23.380;2023-02-04T11:06:53;93823.25;;;4.07;95.67
39301;BME280;25019;42.626;23.380;2023-02-04T11:09:20;93830.13;;;4.08;96.14
39301;BME280;25019;42.626;23.380;2023-02-04T11:11:49;93833.13;;;4.42;94.43
39301;BME280;25019;42.626;23.380;2023-02-04T11:14:23;93819.34;;;4.59;90.27
39301;BME280;25019;42.626;23.380;2023-02-04T11:16:49;93817.72;;;4.46;90.04
39301;BME280;25019;42.626;23.380;2023-02-04T11:19:30;93821.56;;;4.74;90.26
39301;BME280;25019;42.626;23.380;2023-02-04T11:22:04;93810.09;;;4.68;87.06
39301;BME280;25019;42.626;23.380;2023-02-04T11:24:32;93811.59;;;4.76;85.61
39301;BME280;25019;42.626;23.380;2023-02-04T11:27:19;93810.47;;;4.84;85.74
39301;BME280;25019;42.626;23.380;2023-02-04T11:29:46;93822.75;;;5.14;82.88
39301;BME280;25019;42.626;23.380;2023-02-04T11:32:35;93814.13;;;4.83;82.72
39301;BME280;25019;42.626;23.380;2023-02-04T11:37:39;93821.75;;;4.60;84.03
39301;BME280;25019;42.626;23.380;2023-02-04T11:40:34;93818.22;;;4.36;87.00
39301;BME280;25019;42.626;23.380;2023-02-04T11:43:13;93830.22;;;4.62;86.10
39301;BME280;25019;42.626;23.380;2023-02-04T11:45:40;93806.16;;;4.47;85.84
39301;BME280;25019;42.626;23.380;2023-02-04T11:48:15;93826.13;;;4.36;87.95
39301;BME280;25019;42.626;23.380;2023-02-04T11:50:42;93830.50;;;4.12;88.95
39301;BME280;25019;42.626;23.380;2023-02-04T11:53:10;93835.25;;;4.03;92.02
39301;BME280;25019;42.626;23.380;2023-02-04T11:55:44;93832.72;;;3.78;94.83
39301;BME280;25019;42.626;23.380;2023-02-04T11:58:15;93838.91;;;3.83;95.76
39301;BME280;25019;42.626;23.380;2023-02-04T12:00:41;93829.28;;;3.96;93.21
39301;BME280;25019;42.626;23.380;2023-02-04T12:05:45;93824.16;;;3.82;96.89
39301;BME280;25019;42.626;23.380;2023-02-04T12:13:27;93812.50;;;3.59;99.53
39301;BME280;25019;42.626;23.380;2023-02-04T12:16:04;93813.44;;;3.47;100.00
39301;BME280;25019;42.626;23.380;2023-02-04T12:18:32;93809.56;;;3.30;100.00
39301;BME280;25019;42.626;23.380;2023-02-04T12:20:59;93786.97;;;3.11;100.00
39301;BME280;25019;42.626;23.380;2023-02-04T12:23:27;93806.59;;;3.27;100.00
39301;BME280;25019;42.626;23.380;2023-02-04T12:25:53;93814.81;;;3.30;100.00
39301;BME280;25019;42.626;23.380;2023-02-04T12:28:19;93724.91;;;2.54;100.00
39301;BME280;25019;42.626;23.380;2023-02-04T12:30:45;93750.00;;;2.68;100.00
39301;BME280;25019;42.626;23.380;2023-02-04T12:33:11;93791.94;;;2.94;100.00
39301;BME280;25019;42.626;23.380;2023-02-04T12:35:37;93781.25;;;2.70;100.00
39301;BME280;25019;42.626;23.380;2023-02-04T12:38:02;93803.94;;;2.83;100.00
39301;BME280;25019;42.626;23.380;2023-02-04T12:40:28;93795.66;;;2.86;100.00
39301;BME280;25019;42.626;23.380;2023-02-04T12:42:54;93783.34;;;2.87;100.00
39301;BME280;25019;42.626;23.380;2023-02-04T12:45:20;93721.72;;;2.52;100.00
39301;BME280;25019;42.626;23.380;2023-02-04T12:47:46;93809.06;;;2.96;100.00
39301;BME280;25019;42.626;23.380;2023-02-04T12:50:14;93793.91;;;2.98;100.00
39301;BME280;25019;42.626;23.380;2023-02-04T12:52:40;93803.28;;;3.13;100.00
39301;BME280;25019;42.626;23.380;2023-02-04T12:55:07;93803.97;;;3.27;100.00
39301;BME280;25019;42.626;23.380;2023-02-04T12:57:34;93805.25;;;3.36;100.00
39301;BME280;25019;42.626;23.380;2023-02-04T12:59:59;93808.44;;;3.45;99.23
39301;BME280;25019;42.626;23.380;2023-02-04T13:02:29;93802.75;;;3.67;97.07